This is the latest recevied weather packets stored in our database for station/object HS5NMF. If no packets are shown the sender has not sent any weather packets the latest 10 day(s).
| Time | Temp. | Humidity | Pressure | Rain* | Wind** | Luminosity | Snow |
|---|---|---|---|---|---|---|---|
| 1777716835 | 34.44° C | 54% | 974 hPa | - | - | 0 W/m² | - |
| 1777716512 | 34.44° C | 54% | 974 hPa | - | - | 0 W/m² | - |
| 1777716190 | 34.44° C | 54% | 974 hPa | - | - | 0 W/m² | - |
| 1777715867 | 33.89° C | 55% | 974 hPa | - | - | 0 W/m² | - |
| 1777715545 | 33.89° C | 54% | 974 hPa | - | - | 0 W/m² | - |
| 1777715219 | 33.89° C | 53% | 975 hPa | - | - | 0 W/m² | - |
| 1777714897 | 34.44° C | 54% | 974 hPa | - | - | 0 W/m² | - |
| 1777714574 | 34.44° C | 54% | 974 hPa | - | - | 0 W/m² | - |
| 1777714252 | 34.44° C | 54% | 974 hPa | - | - | 0 W/m² | - |
| 1777713929 | 34.44° C | 54% | 974 hPa | - | - | 0 W/m² | - |
| 1777713607 | 33.89° C | 55% | 974 hPa | - | - | 0 W/m² | - |
| 1777713286 | 33.89° C | 55% | 974 hPa | - | - | 0 W/m² | - |
| 1777712963 | 33.33° C | 56% | 974 hPa | - | - | 0 W/m² | - |
| 1777712639 | 32.78° C | 58% | 974 hPa | - | - | 0 W/m² | - |
| 1777712315 | 32.22° C | 60% | 974 hPa | - | - | 0 W/m² | - |
| 1777711993 | 31.67° C | 61% | 974 hPa | - | - | 0 W/m² | - |
| 1777711670 | 31.11° C | 61% | 974 hPa | - | - | 0 W/m² | - |
| 1777711346 | 31.11° C | 59% | 975 hPa | - | - | 0 W/m² | - |
| 1777711024 | 31.67° C | 55% | 975 hPa | - | - | 0 W/m² | - |
| 1777710700 | 32.22° C | 54% | 975 hPa | - | - | 0 W/m² | - |
| 1777710377 | 32.22° C | 54% | 975 hPa | - | - | 0 W/m² | - |
| 1777710054 | 33.33° C | 53% | 975 hPa | - | - | 0 W/m² | - |
| 1777709731 | 33.89° C | 51% | 975 hPa | - | - | 0 W/m² | - |
| 1777709409 | 34.44° C | 52% | 975 hPa | - | - | 0 W/m² | - |
| 1777709087 | 34.44° C | 51% | 975 hPa | - | - | 0 W/m² | - |
* Rain since midnight (hover to see other rain measurements)
** Current wind speed in m/s (hover to see current wind gust speed)